Other Surface Observations
Issued by NWS

Current Version | Previous Version | Text Only | Print | Product List | Glossary On
Versions: 1 2 3 4 5 6 7 8 9 10 11 12 13 14 15 16 17 18 19 20 21 22 23 24 25 26 27 28 29 30 31 32 33 34 35 36 37 38 39 40 41 42 43 44 45 46 47 48 49 50
000
SXUS51 KWBC 250749
OSONT
:SHEF ENCODED 6-MINUTE NOS MET DATA
:NATIONAL WATER LEVEL OBSERVATION NETWORK (NWLON)
:TA(AIR TEMP DEG F)  SLP(SEA LEVEL PRESSURE INCHES)
:UD(WIND DIRECTION WHOLE DEGREES) US(WIND SPEED MPH)
:TW(WATER TEMP DEG F) UG(WIND GUSTS MPH) WC(CONDUCTIVITY uMHOS/CM)
:XV(VISIBILITY SM)
:-9999 (MISSING VALUES)
:PROVIDED BY DOC/NOAA/NOS/CO-OPS, (301) 713-2540
:corms@noaa.gov
.E PSBM1 20220925 Z DH0736/TAIRP/DIN06/   52/   52
.E PSBM1 20220925 Z DH0736/PLIRP/DIN06/29.66/29.65
.E PSBM1 20220925 Z DH0736/USIRP/DIN06/    4/    4
.E PSBM1 20220925 Z DH0736/UDIRP/DIN06/  218/  224
.E PSBM1 20220925 Z DH0736/UGIRP/DIN06/   11/    9
.E PSBM1 20220925 Z DH0736/TWIRP/DIN06/   55/   55
.E PSBM1 20220925 Z DH0730/TAIRG/DIN06/   53/   52
.E PSBM1 20220925 Z DH0730/PLIRG/DIN06/29.66/29.66
.E PSBM1 20220925 Z DH0730/USIRG/DIN06/    6/    4
.E PSBM1 20220925 Z DH0730/UDIRG/DIN06/  217/  218
.E PSBM1 20220925 Z DH0730/UGIRG/DIN06/   12/   11
.E PSBM1 20220925 Z DH0730/TWIRG/DIN06/   55/   55
.E CFWM1 20220925 Z DH0736/TAIRP/DIN06/   52/   51
.E CFWM1 20220925 Z DH0736/PLIRP/DIN06/29.69/29.69
.E CFWM1 20220925 Z DH0736/USIRP/DIN06/    4/    4
.E CFWM1 20220925 Z DH0736/UDIRP/DIN06/  317/  324
.E CFWM1 20220925 Z DH0736/UGIRP/DIN06/    7/    7
.E CFWM1 20220925 Z DH0736/TWIRP/DIN06/   54/   54
.A CFWM1 20220925 Z DH0736/TAIRG    52/UGIRG     7/PLIRG 29.69/UDIRG   317/USIRG     4/TWIRG    54/WCIRG -9999
.A ATGM1 20220925 Z DH0736/TAIRG    55/UGIRG    17/PLIRG 29.71/UDIRG   263/USIRG    11/TWIRG    57/WCIRG -9999
.E CASM1 20220925 Z DH0736/TAIRP/DIN06/   50/   49
.E CASM1 20220925 Z DH0736/PLIRP/DIN06/29.76/29.76
.E CASM1 20220925 Z DH0736/USIRP/DIN06/    4/    5
.E CASM1 20220925 Z DH0736/UDIRP/DIN06/  257/  269
.E CASM1 20220925 Z DH0736/UGIRP/DIN06/    5/    6
.E CASM1 20220925 Z DH0736/TWIRP/DIN06/   59/   59
.E CASM1 20220925 Z DH0730/TAIRG/DIN06/   51/   50
.E CASM1 20220925 Z DH0730/PLIRG/DIN06/29.76/29.76
.E CASM1 20220925 Z DH0730/USIRG/DIN06/    5/    4
.E CASM1 20220925 Z DH0730/UDIRG/DIN06/  232/  257
.E CASM1 20220925 Z DH0730/UGIRG/DIN06/    7/    5
.E CASM1 20220925 Z DH0730/TWIRG/DIN06/   59/   59
.E SEIM1 20220925 Z DH0730/TAIRG/DIN06/   52/   52
.E SEIM1 20220925 Z DH0730/PLIRG/DIN06/29.83/29.83
.E SEIM1 20220925 Z DH0730/TWIRG/DIN06/   59/   59
.E BHBM3 20220925 Z DH0736/TAIRP/DIN06/   56/   56
.E BHBM3 20220925 Z DH0736/PLIRP/DIN06/29.83/29.83
.E BHBM3 20220925 Z DH0730/TAIRG/DIN06/   55/   56
.E BHBM3 20220925 Z DH0730/PLIRG/DIN06/29.83/29.83
.E FRVM3 20220925 Z DH0730/TAIRG/DIN06/   56/   56
.E FRVM3 20220925 Z DH0730/PLIRG/DIN06/29.86/29.86
.E FRVM3 20220925 Z DH0730/WCIRG/DIN06/33740/34180
.E FRVM3 20220925 Z DH0730/TWIRG/DIN06/   67/   67
.E BLTM3 20220925 Z DH0736/TAIRP/DIN06/   59/   59
.E BLTM3 20220925 Z DH0736/PLIRP/DIN06/29.85/29.85
.E BLTM3 20220925 Z DH0736/USIRP/DIN06/    5/    5
.E BLTM3 20220925 Z DH0736/UDIRP/DIN06/  202/  203
.E BLTM3 20220925 Z DH0736/UGIRP/DIN06/    6/    6
.E BLTM3 20220925 Z DH0730/TAIRG/DIN06/   59/   59
.E BLTM3 20220925 Z DH0730/PLIRG/DIN06/29.85/29.85
.E BLTM3 20220925 Z DH0730/USIRG/DIN06/    5/    5
.E BLTM3 20220925 Z DH0730/UDIRG/DIN06/  195/  202
.E BLTM3 20220925 Z DH0730/UGIRG/DIN06/    7/    6
.E FRXM3 20220925 Z DH0736/TAIRP/DIN06/   57/   57
.E FRXM3 20220925 Z DH0730/TAIRG/DIN06/   56/   57
.E FRXM3 20220925 Z DH0730/XVIRG/DIN06/6.20/6.20
.E CHTM3 20220925 Z DH0736/TAIRP/DIN06/   53/   53
.E CHTM3 20220925 Z DH0736/PLIRP/DIN06/29.85/29.85
.E CHTM3 20220925 Z DH0736/USIRP/DIN06/    3/    3
.E CHTM3 20220925 Z DH0736/UDIRP/DIN06/  253/  257
.E CHTM3 20220925 Z DH0736/UGIRP/DIN06/    5/    4
.E CHTM3 20220925 Z DH0736/TWIRP/DIN06/   59/   59
.E CHTM3 20220925 Z DH0730/TAIRG/DIN06/   53/   53
.E CHTM3 20220925 Z DH0730/PLIRG/DIN06/29.85/29.85
.E CHTM3 20220925 Z DH0730/USIRG/DIN06/    3/    3
.E CHTM3 20220925 Z DH0730/UDIRG/DIN06/  244/  253
.E CHTM3 20220925 Z DH0730/UGIRG/DIN06/    5/    5
.E CHTM3 20220925 Z DH0730/TWIRG/DIN06/   59/   59
.E BZBM3 20220925 Z DH0736/TAIRP/DIN06/   62/   62
.E BZBM3 20220925 Z DH0736/PLIRP/DIN06/29.80/29.80
.E BZBM3 20220925 Z DH0736/TWIRP/DIN06/   67/   67
.E BZBM3 20220925 Z DH0730/TAIRG/DIN06/   62/   62
.E BZBM3 20220925 Z DH0730/PLIRG/DIN06/29.80/29.80
.E BZBM3 20220925 Z DH0730/TWIRG/DIN06/   67/   67
.E NTKM3 20220925 Z DH0736/TAIRP/DIN06/   58/   58
.E NTKM3 20220925 Z DH0736/PLIRP/DIN06/29.86/29.86
.E NTKM3 20220925 Z DH0736/USIRP/DIN06/    2/    3
.E NTKM3 20220925 Z DH0736/UDIRP/DIN06/  235/  237
.E NTKM3 20220925 Z DH0736/UGIRP/DIN06/    3/    3
.E NTKM3 20220925 Z DH0736/TWIRP/DIN06/   62/   62
.E NTKM3 20220925 Z DH0730/TAIRG/DIN06/   58/   58
.E NTKM3 20220925 Z DH0730/PLIRG/DIN06/29.86/29.86
.E NTKM3 20220925 Z DH0730/USIRG/DIN06/    2/    2
.E NTKM3 20220925 Z DH0730/UDIRG/DIN06/  234/  235
.E NTKM3 20220925 Z DH0730/UGIRG/DIN06/    3/    3
.E NTKM3 20220925 Z DH0730/TWIRG/DIN06/   62/   62
.E PRUR1 20220925 Z DH0736/TAIRP/DIN06/   54/   55
.E PRUR1 20220925 Z DH0736/TAIRG/DIN06/   54/-9999
.E PRUR1 20220925 Z DH0736/XVIRG/DIN06/6.20/6.20
.E NWPR1 20220925 Z DH0736/TAIRP/DIN06/   58/   57
.E NWPR1 20220925 Z DH0736/PLIRP/DIN06/29.85/29.85
.E NWPR1 20220925 Z DH0736/USIRP/DIN06/    1/    1
.E NWPR1 20220925 Z DH0736/UDIRP/DIN06/   88/   75
.E NWPR1 20220925 Z DH0736/UGIRP/DIN06/    1/    2
.E NWPR1 20220925 Z DH0736/TWIRP/DIN06/   65/   65
.E NWPR1 20220925 Z DH0730/TAIRG/DIN06/   58/   58
.E NWPR1 20220925 Z DH0730/PLIRG/DIN06/29.85/29.85
.E NWPR1 20220925 Z DH0730/USIRG/DIN06/    1/    1
.E NWPR1 20220925 Z DH0730/UDIRG/DIN06/   76/   88
.E NWPR1 20220925 Z DH0730/UGIRG/DIN06/    2/    1
.E NWPR1 20220925 Z DH0730/WCIRG/DIN06/32650/32900
.E NWPR1 20220925 Z DH0730/TWIRG/DIN06/   65/   65
.A CPTR1 20220925 Z DH0730/TAIRG    55/UGIRG     4/PLIRG 29.86/UDIRG   290/USIRG     2/TWIRG    65/WCIRG -9999
.E PTCR1 20220925 Z DH0730/TAIRG/DIN06/   54/   54
.E PTCR1 20220925 Z DH0730/PLIRG/DIN06/29.88/29.88
.E PVDR1 20220925 Z DH0736/TAIRP/DIN06/   54/   53
.E PVDR1 20220925 Z DH0736/PLIRP/DIN06/29.85/29.85
.E PVDR1 20220925 Z DH0730/TAIRG/DIN06/   53/   54/-9999
.E PVDR1 20220925 Z DH0730/PLIRG/DIN06/29.86/29.85/-9999
.E PVDR1 20220925 Z DH0730/XVIRG/DIN06/6.20/6.20/6.20
.E FOXR1 20220925 Z DH0736/TAIRP/DIN06/   53/   52
.E FOXR1 20220925 Z DH0736/PLIRP/DIN06/29.85/29.85
.E FOXR1 20220925 Z DH0736/USIRP/DIN06/    2/    2
.E FOXR1 20220925 Z DH0736/UDIRP/DIN06/  201/  199
.E FOXR1 20220925 Z DH0736/UGIRP/DIN06/    2/    3
.E FOXR1 20220925 Z DH0736/TWIRP/DIN06/   64/   64
.E FOXR1 20220925 Z DH0730/TAIRG/DIN06/   53/   53
.E FOXR1 20220925 Z DH0730/PLIRG/DIN06/29.85/29.85
.E FOXR1 20220925 Z DH0730/USIRG/DIN06/    0/    2
.E FOXR1 20220925 Z DH0730/UDIRG/DIN06/  223/  201
.E FOXR1 20220925 Z DH0730/UGIRG/DIN06/    0/    2
.E FOXR1 20220925 Z DH0730/TWIRG/DIN06/   64/   64
.E QPTR1 20220925 Z DH0736/TAIRP/DIN06/   55/   55
.E QPTR1 20220925 Z DH0736/PLIRP/DIN06/29.86/29.86
.E QPTR1 20220925 Z DH0736/USIRP/DIN06/    4/    3
.E QPTR1 20220925 Z DH0736/UDIRP/DIN06/  252/  250
.E QPTR1 20220925 Z DH0736/UGIRP/DIN06/    5/    4
.E QPTR1 20220925 Z DH0736/TWIRP/DIN06/   67/   66
.A QPTR1 20220925 Z DH0730/TAIRG    55/UGIRG     5/PLIRG 29.86/UDIRG   255/USIRG     3/TWIRG    67/WCIRG 21400
.E PDVR1 20220925 Z DH0730/TAIRG/DIN06/   53/   54
.E PDVR1 20220925 Z DH0730/PLIRG/DIN06/29.84/29.84
.E NLNC3 20220925 Z DH0730/TAIRG/DIN06/   50/   50
.E NLNC3 20220925 Z DH0730/PLIRG/DIN06/29.83/29.83
.E NLNC3 20220925 Z DH0730/TWIRG/DIN06/   66/   66
.E NWHC3 20220925 Z DH0736/TAIRP/DIN06/   55/   56
.E NWHC3 20220925 Z DH0736/PLIRP/DIN06/29.86/29.86
.E NWHC3 20220925 Z DH0736/USIRP/DIN06/    1/    1
.E NWHC3 20220925 Z DH0736/UDIRP/DIN06/  352/  348
.E NWHC3 20220925 Z DH0736/UGIRP/DIN06/    2/    2
.E NWHC3 20220925 Z DH0736/TWIRP/DIN06/   68/   68
.E NWHC3 20220925 Z DH0730/TAIRG/DIN06/   55/   55
.E NWHC3 20220925 Z DH0730/PLIRG/DIN06/29.85/29.86
.E NWHC3 20220925 Z DH0730/USIRG/DIN06/    0/    1
.E NWHC3 20220925 Z DH0730/UDIRG/DIN06/  142/  352
.E NWHC3 20220925 Z DH0730/UGIRG/DIN06/    2/    2
.E NWHC3 20220925 Z DH0730/TWIRG/DIN06/   68/   68
.E BRHC3 20220925 Z DH0736/TAIRP/DIN06/   57/   58
.E BRHC3 20220925 Z DH0736/PLIRP/DIN06/29.83/29.83
.E BRHC3 20220925 Z DH0736/USIRP/DIN06/    2/    2
.E BRHC3 20220925 Z DH0736/UDIRP/DIN06/  342/  295
.E BRHC3 20220925 Z DH0736/UGIRP/DIN06/    3/    3
.E BRHC3 20220925 Z DH0736/TWIRP/DIN06/   70/   70
.A BRHC3 20220925 Z DH0730/TAIRG    58/UGIRG     4/PLIRG 29.83/UDIRG   255/USIRG     2/TWIRG    70/WCIRG -9999
.E MTKN6 20220925 Z DH0736/TAIRP/DIN06/   61/   61
.E MTKN6 20220925 Z DH0736/PLIRP/DIN06/29.84/29.84
.E MTKN6 20220925 Z DH0736/TWIRP/DIN06/   66/   66
.E MTKN6 20220925 Z DH0730/TAIRG/DIN06/   61/   61
.E MTKN6 20220925 Z DH0730/PLIRG/DIN06/29.84/29.84
.E MTKN6 20220925 Z DH0730/TWIRG/DIN06/   66/   66
.E KPTN6 20220925 Z DH0736/TAIRP/DIN06/   62/   62
.E KPTN6 20220925 Z DH0736/PLIRP/DIN06/29.85/29.85
.E KPTN6 20220925 Z DH0736/USIRP/DIN06/    6/    6
.E KPTN6 20220925 Z DH0736/UDIRP/DIN06/  198/  202
.E KPTN6 20220925 Z DH0736/UGIRP/DIN06/    7/    7
.E KPTN6 20220925 Z DH0736/TWIRP/DIN06/   70/   70
.E KPTN6 20220925 Z DH0730/TAIRG/DIN06/   62/   62
.E KPTN6 20220925 Z DH0730/PLIRG/DIN06/29.85/29.85
.E KPTN6 20220925 Z DH0730/USIRG/DIN06/    5/    6
.E KPTN6 20220925 Z DH0730/UDIRG/DIN06/  195/  198
.E KPTN6 20220925 Z DH0730/UGIRG/DIN06/    6/    7
.E KPTN6 20220925 Z DH0730/TWIRG/DIN06/   70/   70
.A BATN6 20220925 Z DH0736/TAIRG    61/UGIRG -9999/PLIRG 29.87/UDIRG -9999/USIRG -9999/TWIRG    70/WCIRG -9999
.E TKPN6 20220925 Z DH0730/TAIRG/DIN06/   51/   51
.E TKPN6 20220925 Z DH0730/PLIRG/DIN06/29.86/29.86
.E TKPN6 20220925 Z DH0730/USIRG/DIN06/    0/    0
.E TKPN6 20220925 Z DH0730/UDIRG/DIN06/  258/  262
.E TKPN6 20220925 Z DH0730/UGIRG/DIN06/    1/    2
.E BGNN6 20220925 Z DH0736/TAIRP/DIN06/   60/   59
.E BGNN6 20220925 Z DH0736/PLIRP/DIN06/29.86/29.85
.E BGNN6 20220925 Z DH0736/TWIRP/DIN06/   69/   69
.A BGNN6 20220925 Z DH0730/TAIRG    60/UGIRG -9999/PLIRG 29.85/UDIRG -9999/USIRG -9999/TWIRG    69/WCIRG -9999
.E ROBN4 20220925 Z DH0736/TAIRP/DIN06/   61/   61
.E ROBN4 20220925 Z DH0736/PLIRP/DIN06/29.85/29.85
.E ROBN4 20220925 Z DH0736/USIRP/DIN06/   13/   12
.E ROBN4 20220925 Z DH0736/UDIRP/DIN06/  259/  256
.E ROBN4 20220925 Z DH0736/UGIRP/DIN06/   16/   15
.A ROBN4 20220925 Z DH0736/TAIRG    61/UGIRG    16/PLIRG 29.85/UDIRG   259/USIRG    13/TWIRG -9999/WCIRG -9999
.E SDHN4 20220925 Z DH0736/USIRP/DIN06/    6/    9
.E SDHN4 20220925 Z DH0736/UDIRP/DIN06/  215/  225
.E SDHN4 20220925 Z DH0736/UGIRP/DIN06/    7/   10
.E ACYN4 20220925 Z DH0736/TAIRP/DIN06/   67/   67
.E ACYN4 20220925 Z DH0736/PLIRP/DIN06/29.85/29.85
.E ACYN4 20220925 Z DH0730/TAIRG/DIN06/   67/   67
.E ACYN4 20220925 Z DH0730/PLIRG/DIN06/29.85/29.85
.E CMAN4 20220925 Z DH0736/TAIRP/DIN06/   66/   66
.E CMAN4 20220925 Z DH0736/PLIRP/DIN06/29.87/29.86
.E CMAN4 20220925 Z DH0736/USIRP/DIN06/    9/   10
.E CMAN4 20220925 Z DH0736/UDIRP/DIN06/  218/  215
.E CMAN4 20220925 Z DH0736/UGIRP/DIN06/   11/   13
.E CMAN4 20220925 Z DH0736/TWIRP/DIN06/   71/   71
.A CMAN4 20220925 Z DH0736/TAIRG    66/UGIRG    11/PLIRG 29.87/UDIRG   218/USIRG     9/TWIRG    71/WCIRG -9999
.E SJSN4 20220925 Z DH0736/TAIRP/DIN06/   63/   62
.E SJSN4 20220925 Z DH0736/PLIRP/DIN06/29.89/29.89
.E SJSN4 20220925 Z DH0736/USIRP/DIN06/   12/   13
.E SJSN4 20220925 Z DH0736/UDIRP/DIN06/  193/  207
.E SJSN4 20220925 Z DH0736/UGIRP/DIN06/   15/   15
.E SJSN4 20220925 Z DH0736/TWIRP/DIN06/   69/   69
.E SJSN4 20220925 Z DH0730/TAIRG/DIN06/   64/   63
.E SJSN4 20220925 Z DH0730/PLIRG/DIN06/29.89/29.89
.E SJSN4 20220925 Z DH0730/USIRG/DIN06/   13/   12
.E SJSN4 20220925 Z DH0730/UDIRG/DIN06/  188/  193
.E SJSN4 20220925 Z DH0730/UGIRG/DIN06/   14/   15
.E SJSN4 20220925 Z DH0730/TWIRG/DIN06/   69/   69
.E BDRN4 20220925 Z DH0736/TAIRP/DIN06/   60/   60
.E BDRN4 20220925 Z DH0736/PLIRP/DIN06/29.85/29.85
.E BDRN4 20220925 Z DH0736/USIRP/DIN06/    6/    5
.E BDRN4 20220925 Z DH0736/UDIRP/DIN06/  192/  197
.E BDRN4 20220925 Z DH0736/UGIRP/DIN06/    9/    7
.E BDRN4 20220925 Z DH0736/TWIRP/DIN06/   71/   71
.E BDRN4 20220925 Z DH0730/TAIRG/DIN06/   60/   60
.E BDRN4 20220925 Z DH0730/PLIRG/DIN06/29.85/29.85
.E BDRN4 20220925 Z DH0730/USIRG/DIN06/    4/    6
.E BDRN4 20220925 Z DH0730/UDIRG/DIN06/  176/  192
.E BDRN4 20220925 Z DH0730/UGIRG/DIN06/    5/    9
.E BDRN4 20220925 Z DH0730/TWIRG/DIN06/   71/   71
.E MRCP1 20220925 Z DH0736/TAIRP/DIN06/   61/   61
.E MRCP1 20220925 Z DH0736/PLIRP/DIN06/29.86/29.86
.E MRCP1 20220925 Z DH0736/TWIRP/DIN06/   74/   74
.E PHBP1 20220925 Z DH0730/TAIRG/DIN06/   62/   62
.E PHBP1 20220925 Z DH0730/PLIRG/DIN06/29.84/29.84
.E PHBP1 20220925 Z DH0730/TWIRG/DIN06/   72/   72
.E BDSP1 20220925 Z DH0736/TAIRP/DIN06/   61/   62
.E BDSP1 20220925 Z DH0736/PLIRP/DIN06/29.85/29.85
.E BDSP1 20220925 Z DH0736/TWIRP/DIN06/   72/   72
.E BDSP1 20220925 Z DH0730/TAIRG/DIN06/   61/   61
.E BDSP1 20220925 Z DH0730/PLIRG/DIN06/29.85/29.85
.E BDSP1 20220925 Z DH0730/TWIRG/DIN06/   72/   72
.E NBLP1 20220925 Z DH0736/TAIRP/DIN06/   59/   59
.E NBLP1 20220925 Z DH0736/PLIRP/DIN06/29.87/29.87
.E NBLP1 20220925 Z DH0736/USIRP/DIN06/    4/    4
.E NBLP1 20220925 Z DH0736/UDIRP/DIN06/  183/  176
.E NBLP1 20220925 Z DH0736/UGIRP/DIN06/    5/    6
.E NBLP1 20220925 Z DH0736/TWIRP/DIN06/   70/   70
.E NBLP1 20220925 Z DH0730/TAIRG/DIN06/   59/   59
.E NBLP1 20220925 Z DH0730/PLIRG/DIN06/29.88/29.87
.E NBLP1 20220925 Z DH0730/USIRG/DIN06/    4/    4
.E NBLP1 20220925 Z DH0730/UDIRG/DIN06/  190/  183
.E NBLP1 20220925 Z DH0730/UGIRG/DIN06/    8/    5
.E NBLP1 20220925 Z DH0730/TWIRG/DIN06/   70/   70
.E DELD1 20220925 Z DH0736/TAIRP/DIN06/   59/   59
.E DELD1 20220925 Z DH0736/PLIRP/DIN06/29.86/29.86
.E DELD1 20220925 Z DH0736/USIRP/DIN06/    2/    3
.E DELD1 20220925 Z DH0736/UDIRP/DIN06/  180/  161
.E DELD1 20220925 Z DH0736/UGIRP/DIN06/    2/    5
.E DELD1 20220925 Z DH0736/TWIRP/DIN06/   72/   72
.E DELD1 20220925 Z DH0730/TAIRG/DIN06/   59/   59
.E DELD1 20220925 Z DH0730/PLIRG/DIN06/29.86/29.86
.E DELD1 20220925 Z DH0730/USIRG/DIN06/    0/    2
.E DELD1 20220925 Z DH0730/UDIRG/DIN06/  235/  180
.E DELD1 20220925 Z DH0730/UGIRG/DIN06/    3/    2
.E DELD1 20220925 Z DH0730/TWIRG/DIN06/   72/   72
.E RDYD1 20220925 Z DH0730/TAIRG/DIN06/   59/   59
.E RDYD1 20220925 Z DH0730/PLIRG/DIN06/29.85/29.85
.E RDYD1 20220925 Z DH0730/TWIRG/DIN06/   73/   73
.A BRND1 20220925 Z DH0730/TAIRG -9999/UGIRG    17/PLIRG 29.88/UDIRG   226/USIRG    16/TWIRG -9999/WCIRG -9999
.E LWSD1 20220925 Z DH0736/TAIRP/DIN06/   61/   61
.E LWSD1 20220925 Z DH0736/PLIRP/DIN06/29.88/29.88
.E LWSD1 20220925 Z DH0736/USIRP/DIN06/    6/    7
.E LWSD1 20220925 Z DH0736/UDIRP/DIN06/  209/  213
.E LWSD1 20220925 Z DH0736/UGIRP/DIN06/    9/    9
.E LWSD1 20220925 Z DH0736/TWIRP/DIN06/   67/   67
.E LWSD1 20220925 Z DH0730/TAIRG/DIN06/   61/   61
.E LWSD1 20220925 Z DH0730/PLIRG/DIN06/29.88/29.88
.E LWSD1 20220925 Z DH0730/USIRG/DIN06/    7/    6
.E LWSD1 20220925 Z DH0730/UDIRG/DIN06/  209/  209
.E LWSD1 20220925 Z DH0730/UGIRG/DIN06/    9/    9
.E LWSD1 20220925 Z DH0730/WCIRG/DIN06/41630/41630
.E LWSD1 20220925 Z DH0730/TWIRG/DIN06/   67/   67
.E OCIM2 20220925 Z DH0736/TAIRP/DIN06/   66/   66
.E OCIM2 20220925 Z DH0736/PLIRP/DIN06/29.90/29.90
.E OCIM2 20220925 Z DH0736/USIRP/DIN06/    6/    8
.E OCIM2 20220925 Z DH0736/UDIRP/DIN06/  245/  250
.E OCIM2 20220925 Z DH0736/UGIRP/DIN06/    9/   10
.E OCIM2 20220925 Z DH0736/TWIRP/DIN06/   70/   70
.E OCIM2 20220925 Z DH0730/TAIRG/DIN06/   65/   66
.E OCIM2 20220925 Z DH0730/PLIRG/DIN06/29.91/29.90
.E OCIM2 20220925 Z DH0730/USIRG/DIN06/    7/    6
.E OCIM2 20220925 Z DH0730/UDIRG/DIN06/  246/  245
.E OCIM2 20220925 Z DH0730/UGIRG/DIN06/    9/    9
.E OCIM2 20220925 Z DH0730/TWIRG/DIN06/   70/   70
.E BISM2 20220925 Z DH0736/TAIRP/DIN06/   67/   67
.E BISM2 20220925 Z DH0736/PLIRP/DIN06/29.88/29.87
.E BISM2 20220925 Z DH0736/USIRP/DIN06/   14/   13
.E BISM2 20220925 Z DH0736/UDIRP/DIN06/  219/  213
.E BISM2 20220925 Z DH0736/UGIRP/DIN06/   15/   16
.E BISM2 20220925 Z DH0736/TWIRP/DIN06/   67/   67
.A BISM2 20220925 Z DH0730/TAIRG    67/UGIRG    13/PLIRG 29.88/UDIRG   219/USIRG    11/TWIRG    67/WCIRG -9999
.E CAMM2 20220925 Z DH0730/TAIRG/DIN06/   64/   64
.E CAMM2 20220925 Z DH0730/PLIRG/DIN06/29.86/29.86
.E CAMM2 20220925 Z DH0730/USIRG/DIN06/    4/    5
.E CAMM2 20220925 Z DH0730/UDIRG/DIN06/  187/  213
.E CAMM2 20220925 Z DH0730/UGIRG/DIN06/    7/    7
.E CAMM2 20220925 Z DH0730/TWIRG/DIN06/   71/   71
.A TCBM2 20220925 Z DH0730/TAIRG    60/UGIRG     7/PLIRG 29.86/UDIRG   129/USIRG     5/TWIRG    70/WCIRG -9999
.E CHCM2 20220925 Z DH0736/TAIRP/DIN06/   58/   58
.E CHCM2 20220925 Z DH0736/PLIRP/DIN06/29.86/29.86
.E CHCM2 20220925 Z DH0736/USIRP/DIN06/    4/    2
.E CHCM2 20220925 Z DH0736/UDIRP/DIN06/  149/  146
.E CHCM2 20220925 Z DH0736/UGIRP/DIN06/    4/    5
.E CHCM2 20220925 Z DH0736/TWIRP/DIN06/   72/   72
.A CHCM2 20220925 Z DH0730/TAIRG    58/UGIRG     2/PLIRG 29.86/UDIRG   171/USIRG     2/TWIRG    72/WCIRG  4910
.E BLTM2 20220925 Z DH0736/TAIRP/DIN06/   62/   62
.E BLTM2 20220925 Z DH0736/PLIRP/DIN06/29.84/29.83
.E BLTM2 20220925 Z DH0736/USIRP/DIN06/    3/    2
.E BLTM2 20220925 Z DH0736/UDIRP/DIN06/  253/  209
.E BLTM2 20220925 Z DH0736/UGIRP/DIN06/    4/    3
.E BLTM2 20220925 Z DH0736/TWIRP/DIN06/   74/   74
.E BLTM2 20220925 Z DH0730/TAIRG/DIN06/   62/   62
.E BLTM2 20220925 Z DH0730/PLIRG/DIN06/29.84/29.84
.E BLTM2 20220925 Z DH0730/USIRG/DIN06/    4/    3
.E BLTM2 20220925 Z DH0730/UDIRG/DIN06/  256/  253
.E BLTM2 20220925 Z DH0730/UGIRG/DIN06/    5/    4
.E BLTM2 20220925 Z DH0730/WCIRG/DIN06/24950/25190
.E BLTM2 20220925 Z DH0730/TWIRG/DIN06/   74/   74
.E FSKM2 20220925 Z DH0730/PLIRG/DIN06/29.85/29.85
.A FSNM2 20220925 Z DH0730/TAIRP    60/UGIRP -9999/PLIRP 29.84/UDIRP -9999/USIRP -9999/TWIRP -9999/WCIRP -9999
.E CPVM2 20220925 Z DH0736/TAIRP/DIN06/   66/   66
.E CPVM2 20220925 Z DH0730/TAIRG/DIN06/   66/   66
.E CPVM2 20220925 Z DH0730/XVIRG/DIN06/6.20/6.20
.E APAM2 20220925 Z DH0730/TAIRG/DIN06/   63/   63
.E APAM2 20220925 Z DH0730/PLIRG/DIN06/29.85/29.85
.E APAM2 20220925 Z DH0730/USIRG/DIN06/    2/    0
.E APAM2 20220925 Z DH0730/UDIRG/DIN06/  252/  331
.E APAM2 20220925 Z DH0730/UGIRG/DIN06/    2/    1
.E APAM2 20220925 Z DH0730/TWIRG/DIN06/   75/   75
.E COVM2 20220925 Z DH0730/TAIRG/DIN06/   64/   64
.E COVM2 20220925 Z DH0730/PLIRG/DIN06/29.87/29.87
.E SLIM2 20220925 Z DH0736/TAIRP/DIN06/   63/   63
.E SLIM2 20220925 Z DH0736/PLIRP/DIN06/29.83/29.83
.E SLIM2 20220925 Z DH0736/USIRP/DIN06/    8/    8
.E SLIM2 20220925 Z DH0736/UDIRP/DIN06/  210/  205
.E SLIM2 20220925 Z DH0736/UGIRP/DIN06/   10/   10
.E SLIM2 20220925 Z DH0736/TWIRP/DIN06/   74/   74
.E SLIM2 20220925 Z DH0730/TAIRG/DIN06/   63/   63
.E SLIM2 20220925 Z DH0730/PLIRG/DIN06/29.83/29.83
.E SLIM2 20220925 Z DH0730/USIRG/DIN06/    9/    8
.E SLIM2 20220925 Z DH0730/UDIRG/DIN06/  202/  210
.E SLIM2 20220925 Z DH0730/UGIRG/DIN06/   11/   10
.E SLIM2 20220925 Z DH0730/TWIRG/DIN06/   74/   74
.E PPTM2 20220925 Z DH0736/USIRP/DIN06/   16/   15
.E PPTM2 20220925 Z DH0736/UDIRP/DIN06/  230/  228
.E PPTM2 20220925 Z DH0736/UGIRP/DIN06/   19/   18
.E PPTM2 20220925 Z DH0730/USIRG/DIN06/   16/   16
.E PPTM2 20220925 Z DH0730/UDIRG/DIN06/  229/  230
.E PPTM2 20220925 Z DH0730/UGIRG/DIN06/   19/   19
.E WASD2 20220925 Z DH0730/TAIRG/DIN06/   63/   63
.E WASD2 20220925 Z DH0730/PLIRG/DIN06/29.85/29.85
.E WASD2 20220925 Z DH0730/USIRG/DIN06/    2/    2
.E WASD2 20220925 Z DH0730/UDIRG/DIN06/  220/  222
.E WASD2 20220925 Z DH0730/UGIRG/DIN06/    3/    3
.E WASD2 20220925 Z DH0730/TWIRG/DIN06/   73/   73
.A WAHV2 20220925 Z DH0736/TAIRG    65/UGIRG     6/PLIRG 29.89/UDIRG   216/USIRG     4/TWIRG    68/WCIRG -9999
.E KPTV2 20220925 Z DH0736/USIRP/DIN06/   15/   13
.E KPTV2 20220925 Z DH0736/UDIRP/DIN06/  243/  224
.E KPTV2 20220925 Z DH0736/UGIRP/DIN06/   21/   19
.E KPTV2 20220925 Z DH0736/TWIRP/DIN06/   75/   75
.A KPTV2 20220925 Z DH0736/TAIRG -9999/UGIRG    21/PLIRG -9999/UDIRG   243/USIRG    15/TWIRG    75/WCIRG -9999
.E RPLV2 20220925 Z DH0736/PLIRP/DIN06/29.93/29.92
.E RPLV2 20220925 Z DH0736/USIRP/DIN06/   19/   18
.E RPLV2 20220925 Z DH0736/UDIRP/DIN06/  199/  190
.E RPLV2 20220925 Z DH0736/UGIRP/DIN06/   22/   21
.E NCDV2 20220925 Z DH0736/TAIRP/DIN06/   63/   63
.E NCDV2 20220925 Z DH0736/PLIRP/DIN06/29.84/29.83
.E NCDV2 20220925 Z DH0736/USIRP/DIN06/    4/    3
.E NCDV2 20220925 Z DH0736/UDIRP/DIN06/  252/  238
.E NCDV2 20220925 Z DH0736/UGIRP/DIN06/    6/    5
.E NCDV2 20220925 Z DH0736/TWIRP/DIN06/   72/   72
.A NCDV2 20220925 Z DH0730/TAIRG    63/UGIRG     9/PLIRG 29.84/UDIRG   243/USIRG     5/TWIRG    72/WCIRG -9999
.E LWTV2 20220925 Z DH0736/TAIRP/DIN06/   64/   64
.E LWTV2 20220925 Z DH0736/PLIRP/DIN06/29.88/29.88
.E LWTV2 20220925 Z DH0736/USIRP/DIN06/    8/    8
.E LWTV2 20220925 Z DH0736/UDIRP/DIN06/  217/  224
.E LWTV2 20220925 Z DH0736/UGIRP/DIN06/   10/   11
.E LWTV2 20220925 Z DH0736/TWIRP/DIN06/   70/   70
.E LWTV2 20220925 Z DH0730/TAIRG/DIN06/   64/   64
.E LWTV2 20220925 Z DH0730/PLIRG/DIN06/29.88/29.88
.E LWTV2 20220925 Z DH0730/USIRG/DIN06/    8/    8
.E LWTV2 20220925 Z DH0730/UDIRG/DIN06/  217/  217
.E LWTV2 20220925 Z DH0730/UGIRG/DIN06/    9/   10
.E LWTV2 20220925 Z DH0730/WCIRG/DIN06/22750/22750
.E LWTV2 20220925 Z DH0730/TWIRG/DIN06/   70/   70
.E YKRV2 20220925 Z DH0736/TAIRP/DIN06/   66/   66
.E YKRV2 20220925 Z DH0736/PLIRP/DIN06/29.90/29.90
.A YKRV2 20220925 Z DH0736/TAIRG    66/UGIRG -9999/PLIRG 29.90/UDIRG -9999/USIRG -9999/TWIRG -9999/WCIRG -9999
.E YKTV2 20220925 Z DH0736/TAIRP/DIN06/   62/   62
.E YKTV2 20220925 Z DH0736/PLIRP/DIN06/29.88/29.89
.E YKTV2 20220925 Z DH0736/USIRP/DIN06/    8/    7
.E YKTV2 20220925 Z DH0736/UDIRP/DIN06/  206/  210
.E YKTV2 20220925 Z DH0736/UGIRP/DIN06/   11/   10
.E YKTV2 20220925 Z DH0736/TWIRP/DIN06/   74/   74
.E YKTV2 20220925 Z DH0730/TAIRG/DIN06/   62/   62
.E YKTV2 20220925 Z DH0730/PLIRG/DIN06/29.89/29.88
.E YKTV2 20220925 Z DH0730/USIRG/DIN06/    7/    8
.E YKTV2 20220925 Z DH0730/UDIRG/DIN06/  206/  206
.E YKTV2 20220925 Z DH0730/UGIRG/DIN06/   10/   11
.E YKTV2 20220925 Z DH0730/WCIRG/DIN06/32210/32110
.E YKTV2 20220925 Z DH0730/TWIRG/DIN06/   74/   74
.E DOMV2 20220925 Z DH0736/TAIRP/DIN06/   64/   65
.E DOMV2 20220925 Z DH0736/PLIRP/DIN06/29.91/29.91
.E DOMV2 20220925 Z DH0730/TAIRG/DIN06/   64/   64
.E DOMV2 20220925 Z DH0730/PLIRG/DIN06/29.91/29.91
.E CRYV2 20220925 Z DH0736/TAIRP/DIN06/   64/   64
.E CRYV2 20220925 Z DH0736/PLIRP/DIN06/29.91/29.91
.E CRYV2 20220925 Z DH0736/TAIRG/DIN06/   64/   64
.E CRYV2 20220925 Z DH0736/PLIRG/DIN06/29.91/29.91
.E SWPV2 20220925 Z DH0736/PLIRP/DIN06/29.89/29.89
.E SWPV2 20220925 Z DH0736/TWIRP/DIN06/   75/   75
.E SWPV2 20220925 Z DH0730/PLIRG/DIN06/29.89/29.89
.E SWPV2 20220925 Z DH0730/WCIRG/DIN06/31760/31720
.E SWPV2 20220925 Z DH0730/TWIRG/DIN06/   75/   75
.E WDSV2 20220925 Z DH0736/TAIRP/DIN06/   65/   65
.E WDSV2 20220925 Z DH0736/PLIRP/DIN06/29.91/29.91
.E WDSV2 20220925 Z DH0730/TAIRG/DIN06/   65/   65
.E WDSV2 20220925 Z DH0730/PLIRG/DIN06/29.90/29.91
.E CHBV2 20220925 Z DH0736/TAIRP/DIN06/   65/   66
.E CHBV2 20220925 Z DH0736/PLIRP/DIN06/29.89/29.89
.E CHBV2 20220925 Z DH0736/USIRP/DIN06/   11/   13
.E CHBV2 20220925 Z DH0736/UDIRP/DIN06/  228/  224
.E CHBV2 20220925 Z DH0736/UGIRP/DIN06/   15/   16
.A CHBV2 20220925 Z DH0730/TAIRG    65/UGIRG    18/PLIRG 29.89/UDIRG   226/USIRG    13/TWIRG -9999/WCIRG -9999
.E CHYV2 20220925 Z DH0736/TAIRP/DIN06/   64/   64
.E CHYV2 20220925 Z DH0736/PLIRP/DIN06/29.93/29.93
.E MNPV2 20220925 Z DH0736/TAIRP/DIN06/   60/   60
.E MNPV2 20220925 Z DH0736/PLIRP/DIN06/29.91/29.91
.E MNPV2 20220925 Z DH0736/USIRP/DIN06/    5/    5
.E MNPV2 20220925 Z DH0736/UDIRP/DIN06/  197/  194
.E MNPV2 20220925 Z DH0736/UGIRP/DIN06/    7/    7
.E MNPV2 20220925 Z DH0736/TWIRP/DIN06/   75/   75
.A MNPV2 20220925 Z DH0730/TAIRG    60/UGIRG     8/PLIRG 29.91/UDIRG   197/USIRG     5/TWIRG    75/WCIRG 36050
.A DUKN7 20220925 Z DH0736/TAIRG    70/UGIRG    18/PLIRG 29.95/UDIRG   216/USIRG    13/TWIRG    74/WCIRG -9999
.A ORIN7 20220925 Z DH0730/TAIRG    70/UGIRG    13/PLIRG 29.96/UDIRG   242/USIRG    12/TWIRG    73/WCIRG -9999
.E HCGN7 20220925 Z DH0736/TAIRP/DIN06/   71/   72
.E HCGN7 20220925 Z DH0736/PLIRP/DIN06/29.98/29.98
.E HCGN7 20220925 Z DH0736/USIRP/DIN06/    8/   10
.E HCGN7 20220925 Z DH0736/UDIRP/DIN06/  251/  256
.E HCGN7 20220925 Z DH0736/UGIRP/DIN06/   10/   13
.E HCGN7 20220925 Z DH0736/TWIRP/DIN06/   74/   74
.E HCGN7 20220925 Z DH0730/TWIRG/DIN06/   74/   74
.E BFTN7 20220925 Z DH0736/TAIRP/DIN06/   74/   74
.E BFTN7 20220925 Z DH0736/PLIRP/DIN06/29.95/29.94
.E BFTN7 20220925 Z DH0736/USIRP/DIN06/    6/    5
.E BFTN7 20220925 Z DH0736/UDIRP/DIN06/  243/  229
.E BFTN7 20220925 Z DH0736/UGIRP/DIN06/   11/   10
.E BFTN7 20220925 Z DH0736/TWIRP/DIN06/   76/   76
.E BFTN7 20220925 Z DH0730/TAIRG/DIN06/   74/   74
.E BFTN7 20220925 Z DH0730/PLIRG/DIN06/29.95/29.95
.E BFTN7 20220925 Z DH0730/USIRG/DIN06/    8/    6
.E BFTN7 20220925 Z DH0730/UDIRG/DIN06/  239/  243
.E BFTN7 20220925 Z DH0730/UGIRG/DIN06/   11/   10
.E BFTN7 20220925 Z DH0730/TWIRG/DIN06/   76/   76
.E WLON7 20220925 Z DH0736/TAIRP/DIN06/   65/   65
.E WLON7 20220925 Z DH0736/PLIRP/DIN06/29.95/29.95
.E WLON7 20220925 Z DH0736/TWIRP/DIN06/   79/   79
.E WLON7 20220925 Z DH0730/TAIRG/DIN06/   65/   65
.E WLON7 20220925 Z DH0730/PLIRG/DIN06/29.95/29.95
.E WLON7 20220925 Z DH0730/TWIRG/DIN06/   79/   79
.E JMPN7 20220925 Z DH0736/TAIRP/DIN06/   70/   70
.E JMPN7 20220925 Z DH0736/PLIRP/DIN06/29.96/29.96
.E JMPN7 20220925 Z DH0736/USIRP/DIN06/    6/    6
.E JMPN7 20220925 Z DH0736/UDIRP/DIN06/  243/  242
.E JMPN7 20220925 Z DH0736/UGIRP/DIN06/    8/    8
.E JMPN7 20220925 Z DH0736/TWIRP/DIN06/   79/   79
.E JMPN7 20220925 Z DH0730/TAIRG/DIN06/   70/   70
.E JMPN7 20220925 Z DH0730/PLIRG/DIN06/29.96/29.96
.E JMPN7 20220925 Z DH0730/USIRG/DIN06/    7/    6
.E JMPN7 20220925 Z DH0730/UDIRG/DIN06/  241/  243
.E JMPN7 20220925 Z DH0730/UGIRG/DIN06/    9/    8
.E JMPN7 20220925 Z DH0730/TWIRG/DIN06/   79/   79
.E MROS1 20220925 Z DH0736/TAIRP/DIN06/   69/   69
.E MROS1 20220925 Z DH0736/PLIRP/DIN06/30.01/30.01
.E MROS1 20220925 Z DH0730/TAIRG/DIN06/   69/   69
.E MROS1 20220925 Z DH0730/PLIRG/DIN06/30.01/30.01
.E MROS1 20220925 Z DH0730/USIRG/DIN06/    9/    9
.E MROS1 20220925 Z DH0730/UDIRG/DIN06/  234/  235
.E MROS1 20220925 Z DH0730/UGIRG/DIN06/   11/   10
.E CHTS1 20220925 Z DH0736/TAIRP/DIN06/   72/   72
.E CHTS1 20220925 Z DH0736/PLIRP/DIN06/29.95/29.95
.E CHTS1 20220925 Z DH0736/USIRP/DIN06/    2/    2
.E CHTS1 20220925 Z DH0736/UDIRP/DIN06/  287/  286
.E CHTS1 20220925 Z DH0736/UGIRP/DIN06/    3/    4
.E CHTS1 20220925 Z DH0736/TWIRP/DIN06/   80/   80
.E CHTS1 20220925 Z DH0730/TAIRG/DIN06/   72/   72
.E CHTS1 20220925 Z DH0730/PLIRG/DIN06/29.95/29.95
.E CHTS1 20220925 Z DH0730/USIRG/DIN06/    2/    2
.E CHTS1 20220925 Z DH0730/UDIRG/DIN06/  291/  287
.E CHTS1 20220925 Z DH0730/UGIRG/DIN06/    4/    3
.E CHTS1 20220925 Z DH0730/TWIRG/DIN06/   80/   80
.E FPKG1 20220925 Z DH0730/TAIRG/DIN06/   71/   71
.E FPKG1 20220925 Z DH0730/PLIRG/DIN06/30.00/30.00
.E FPKG1 20220925 Z DH0730/USIRG/DIN06/    5/    4
.E FPKG1 20220925 Z DH0730/UDIRG/DIN06/  353/  343
.E FPKG1 20220925 Z DH0730/UGIRG/DIN06/    6/    4
.E FPKG1 20220925 Z DH0730/TWIRG/DIN06/   80/   80
.E FRDF1 20220925 Z DH0730/TAIRG/DIN06/   76/   76
.E FRDF1 20220925 Z DH0730/PLIRG/DIN06/29.98/29.97
.E FRDF1 20220925 Z DH0730/TWIRG/DIN06/   80/   80
.E NFDF1 20220925 Z DH0736/TAIRP/DIN06/   71/   70
.E NFDF1 20220925 Z DH0736/PLIRP/DIN06/29.96/29.96
.A NFDF1 20220925 Z DH0736/TAIRG    71/UGIRG -9999/PLIRG 29.96/UDIRG -9999/USIRG -9999/TWIRG -9999/WCIRG -9999/XVIRG 6.20
.E MYPF1 20220925 Z DH0736/TAIRP/DIN06/   76/   76
.E MYPF1 20220925 Z DH0736/PLIRP/DIN06/29.97/29.97
.E MYPF1 20220925 Z DH0736/USIRP/DIN06/    2/    1
.E MYPF1 20220925 Z DH0736/UDIRP/DIN06/  303/  256
.E MYPF1 20220925 Z DH0736/UGIRP/DIN06/    3/    3
.E MYPF1 20220925 Z DH0736/TWIRP/DIN06/   81/   81
.E MYPF1 20220925 Z DH0730/TAIRG/DIN06/   76/   76
.E MYPF1 20220925 Z DH0730/PLIRG/DIN06/29.98/29.97
.E MYPF1 20220925 Z DH0730/USIRG/DIN06/    2/    2
.E MYPF1 20220925 Z DH0730/UDIRG/DIN06/  277/  303
.E MYPF1 20220925 Z DH0730/UGIRG/DIN06/    2/    3
.E MYPF1 20220925 Z DH0730/WCIRG/DIN06/50100/49180
.E MYPF1 20220925 Z DH0730/TWIRG/DIN06/   81/   81
.E DMSF1 20220925 Z DH0736/TWIRP/DIN06/   82/   82
.A DMSF1 20220925 Z DH0736/TAIRG -9999/UGIRG -9999/PLIRG -9999/UDIRG -9999/USIRG -9999/TWIRG    82/WCIRG 31590
.E LTJF1 20220925 Z DH0736/TAIRP/DIN06/   76/   77
.A LTJF1 20220925 Z DH0730/TAIRG    76/UGIRG -9999/PLIRG -9999/UDIRG -9999/USIRG -9999/TWIRG -9999/WCIRG -9999/XVIRG 6.20
.E BLIF1 20220925 Z DH0736/TAIRP/DIN06/   75/   75
.E BLIF1 20220925 Z DH0736/PLIRP/DIN06/29.96/29.96
.A BLIF1 20220925 Z DH0730/TAIRG    75/UGIRG -9999/PLIRG 29.96/UDIRG -9999/USIRG -9999/TWIRG -9999/WCIRG -9999/XVIRG 6.20
.E JXUF1 20220925 Z DH0736/TWIRP/DIN06/   81/   81
.A JXUF1 20220925 Z DH0736/TAIRG -9999/UGIRG -9999/PLIRG -9999/UDIRG -9999/USIRG -9999/TWIRG    81/WCIRG 21930
.E BKBF1 20220925 Z DH0736/TAIRP/DIN06/   71/   71
.E BKBF1 20220925 Z DH0736/PLIRP/DIN06/29.95/29.95
.E BKBF1 20220925 Z DH0736/USIRP/DIN06/    2/    2
.E BKBF1 20220925 Z DH0736/UDIRP/DIN06/  323/  318
.E BKBF1 20220925 Z DH0736/UGIRP/DIN06/    3/    3
.A BKBF1 20220925 Z DH0736/TAIRG    71/UGIRG     3/PLIRG 29.95/UDIRG   323/USIRG     2/TWIRG -9999/WCIRG -9999
.E TRDF1 20220925 Z DH0736/USIRP/DIN06/    8/    8
.E TRDF1 20220925 Z DH0736/UDIRP/DIN06/  102/  100
.E TRDF1 20220925 Z DH0736/UGIRP/DIN06/   13/   13
.E LKWF1 20220925 Z DH0730/TAIRG/DIN06/   83/   83
.E LKWF1 20220925 Z DH0730/PLIRG/DIN06/29.86/29.86
.E LKWF1 20220925 Z DH0730/USIRG/DIN06/    6/    4
.E LKWF1 20220925 Z DH0730/UDIRG/DIN06/  169/  185
.E LKWF1 20220925 Z DH0730/UGIRG/DIN06/    7/    7
.E LKWF1 20220925 Z DH0730/TWIRG/DIN06/   86/   86
.E PEGF1 20220925 Z DH0736/TAIRP/DIN06/   80/   80
.E PEGF1 20220925 Z DH0736/PLIRP/DIN06/29.90/29.90
.E PEGF1 20220925 Z DH0736/TWIRP/DIN06/   96/   96
.E PEGF1 20220925 Z DH0730/TAIRG/DIN06/   81/   80
.E PEGF1 20220925 Z DH0730/PLIRG/DIN06/29.90/29.90
.E PEGF1 20220925 Z DH0730/TWIRG/DIN06/   97/   96
.E VAKF1 20220925 Z DH0730/TAIRG/DIN06/   87/   87
.E VAKF1 20220925 Z DH0730/PLIRG/DIN06/29.89/29.89
.E VAKF1 20220925 Z DH0730/USIRG/DIN06/    6/    6
.E VAKF1 20220925 Z DH0730/UDIRG/DIN06/   85/   68
.E VAKF1 20220925 Z DH0730/UGIRG/DIN06/    8/    8
.E VAKF1 20220925 Z DH0730/TWIRG/DIN06/   87/   87
.E VCAF1 20220925 Z DH0736/TAIRP/DIN06/   83/   83
.E VCAF1 20220925 Z DH0736/PLIRP/DIN06/29.83/29.83
.E VCAF1 20220925 Z DH0736/USIRP/DIN06/    1/    2
.E VCAF1 20220925 Z DH0736/UDIRP/DIN06/  102/  102
.E VCAF1 20220925 Z DH0736/UGIRP/DIN06/    4/    4
.E VCAF1 20220925 Z DH0736/TWIRP/DIN06/   89/   89
.A VCAF1 20220925 Z DH0736/TAIRG    83/UGIRG     4/PLIRG 29.83/UDIRG   102/USIRG     1/TWIRG    89/WCIRG -9999
.E KYWF1 20220925 Z DH0736/TAIRP/DIN06/   81/   81
.E KYWF1 20220925 Z DH0736/TWIRP/DIN06/   88/   88
.E KYWF1 20220925 Z DH0730/TAIRG/DIN06/   81/   81
.E KYWF1 20220925 Z DH0730/TWIRG/DIN06/   88/   88
.E BARA9 20220925 Z DH0730/TAIRG/DIN06/   77/   77
.E BARA9 20220925 Z DH0730/PLIRG/DIN06/29.85/29.85



USA.gov is the U.S. government's official web portal to all federal, state and local government web resources and services.